createdAt,value
2024-03-12T00:00:48.531Z,1.80
2024-03-12T00:01:48.511Z,1.30
2024-03-12T00:02:48.469Z,1.10
2024-03-12T00:03:48.493Z,1.90
2024-03-12T00:04:48.445Z,1.60
2024-03-12T00:05:48.476Z,1.50
2024-03-12T00:06:48.440Z,1.40
2024-03-12T00:07:48.397Z,1.30
2024-03-12T00:08:48.378Z,1.30
2024-03-12T00:09:48.414Z,1.50
2024-03-12T00:10:48.379Z,1.70
2024-03-12T00:11:48.335Z,2.90
2024-03-12T00:12:48.361Z,2.70
2024-03-12T00:13:48.304Z,2.50
2024-03-12T00:14:48.291Z,1.80
2024-03-12T00:15:48.300Z,1.50
2024-03-12T00:16:48.261Z,1.40
2024-03-12T00:17:48.269Z,1.90
2024-03-12T00:18:48.256Z,1.70
2024-03-12T00:19:48.213Z,1.30
2024-03-12T00:20:48.201Z,2.20
2024-03-12T00:21:48.279Z,4.40
2024-03-12T00:22:48.168Z,1.40
2024-03-12T00:23:48.153Z,1.30
2024-03-12T00:24:48.188Z,2.60
2024-03-12T00:25:48.125Z,1.50
2024-03-12T00:26:49.138Z,1.70
2024-03-12T00:27:48.156Z,1.40
2024-03-12T00:28:48.083Z,1.20
2024-03-12T00:29:48.077Z,2.20
2024-03-12T00:30:48.090Z,1.50
2024-03-12T00:31:48.054Z,1.60
2024-03-12T00:32:48.027Z,1.70
2024-03-12T00:33:48.051Z,3.40
2024-03-12T00:34:47.989Z,2.30
2024-03-12T00:35:47.972Z,1.10
2024-03-12T00:36:47.984Z,2.50
2024-03-12T00:37:48.002Z,1.10
2024-03-12T00:38:47.986Z,1.40
2024-03-12T00:39:47.955Z,1.60
2024-03-12T00:40:47.901Z,1.50
2024-03-12T00:41:47.882Z,1.70
2024-03-12T00:42:47.934Z,1.40
2024-03-12T00:43:47.859Z,1.30
2024-03-12T00:44:47.881Z,1.10
2024-03-12T00:45:47.855Z,1.70
2024-03-12T00:46:47.815Z,1.30
2024-03-12T00:47:47.876Z,1.20
2024-03-12T00:48:47.814Z,1.60
2024-03-12T00:49:47.769Z,1.60
2024-03-12T00:50:47.752Z,2.30
2024-03-12T00:51:47.800Z,1.70
2024-03-12T00:52:47.721Z,3.10
2024-03-12T00:53:47.758Z,1.40
2024-03-12T00:54:47.712Z,1.70
2024-03-12T00:55:47.681Z,1.50
2024-03-12T00:56:47.668Z,1.50
2024-03-12T00:57:47.657Z,1.50
2024-03-12T00:58:47.644Z,1.50
2024-03-12T00:59:47.613Z,1.20
2024-03-12T01:00:47.701Z,1.20
2024-03-12T01:01:47.601Z,1.70
2024-03-12T01:02:47.572Z,1.30
2024-03-12T01:03:47.614Z,1.40
2024-03-12T01:04:47.543Z,1.40
2024-03-12T01:05:47.530Z,1.30
2024-03-12T01:06:47.545Z,1.70
2024-03-12T01:07:47.494Z,1.40
2024-03-12T01:08:47.550Z,1.30
2024-03-12T01:09:47.574Z,2.40
2024-03-12T01:10:47.483Z,1.80
2024-03-12T01:11:47.489Z,2.80
2024-03-12T01:12:47.462Z,4.20
2024-03-12T01:13:47.405Z,3.50
2024-03-12T01:14:47.391Z,2.60
2024-03-12T01:15:47.384Z,1.40
2024-03-12T01:16:47.360Z,1.60
2024-03-12T01:17:47.422Z,2.90
2024-03-12T01:18:47.338Z,2.40
2024-03-12T01:19:47.320Z,4.10
2024-03-12T01:20:47.298Z,1.20
2024-03-12T01:21:47.351Z,3.90
2024-03-12T01:22:47.273Z,2.00
2024-03-12T01:23:47.251Z,2.00
2024-03-12T01:24:47.263Z,2.00
2024-03-12T01:25:47.267Z,1.40
2024-03-12T01:26:47.207Z,1.60
2024-03-12T01:27:47.248Z,2.00
2024-03-12T01:28:47.218Z,2.70
2024-03-12T01:29:47.158Z,1.20
2024-03-12T01:30:47.166Z,4.70
2024-03-12T01:31:47.131Z,1.60
2024-03-12T01:32:47.142Z,1.60
2024-03-12T01:33:47.153Z,1.40
2024-03-12T01:34:47.086Z,1.70
2024-03-12T01:35:47.074Z,1.30
2024-03-12T01:36:47.087Z,1.70
2024-03-12T01:37:47.229Z,1.50
2024-03-12T01:38:47.025Z,1.20
2024-03-12T01:39:47.027Z,1.80
2024-03-12T01:40:47.003Z,1.10
2024-03-12T01:41:47.021Z,1.60
2024-03-12T01:42:46.972Z,1.50
2024-03-12T01:43:46.947Z,1.00
2024-03-12T01:44:46.944Z,1.30
2024-03-12T01:45:46.967Z,1.60
2024-03-12T01:46:46.912Z,1.40
2024-03-12T01:47:46.953Z,1.60
2024-03-12T01:48:46.938Z,1.80
2024-03-12T01:49:46.855Z,1.60
2024-03-12T01:50:46.849Z,1.10
2024-03-12T01:51:46.893Z,1.40
2024-03-12T01:52:46.817Z,1.60
2024-03-12T01:53:46.801Z,1.30
2024-03-12T01:54:46.858Z,1.30
2024-03-12T01:55:46.763Z,2.00
2024-03-12T01:56:46.753Z,3.20
2024-03-12T01:57:46.850Z,1.30
2024-03-12T01:58:46.722Z,1.50
2024-03-12T01:59:46.721Z,1.60
2024-03-12T02:00:47.610Z,2.30
2024-03-12T02:01:46.701Z,1.80
2024-03-12T02:02:46.672Z,1.70
2024-03-12T02:03:46.724Z,2.10
2024-03-12T02:04:46.640Z,1.30
2024-03-12T02:05:46.633Z,1.20
2024-03-12T02:06:46.657Z,1.80
2024-03-12T02:07:46.609Z,1.60
2024-03-12T02:08:46.582Z,1.80
2024-03-12T02:09:46.604Z,1.50
2024-03-12T02:10:46.550Z,1.30
2024-03-12T02:11:46.525Z,1.30
2024-03-12T02:12:46.783Z,2.00
2024-03-12T02:13:46.555Z,1.80
2024-03-12T02:14:46.484Z,1.60
2024-03-12T02:15:46.488Z,1.30
2024-03-12T02:16:46.454Z,1.20
2024-03-12T02:17:46.478Z,1.40
2024-03-12T02:18:46.491Z,1.70
2024-03-12T02:19:46.407Z,2.40
2024-03-12T02:20:46.402Z,1.40
2024-03-12T02:21:46.424Z,1.80
2024-03-12T02:22:46.369Z,2.30
2024-03-12T02:23:46.353Z,1.10
2024-03-12T02:24:46.375Z,2.50
2024-03-12T02:25:46.317Z,1.60
2024-03-12T02:26:46.416Z,1.40
2024-03-12T02:27:46.335Z,3.20
2024-03-12T02:28:46.276Z,1.80
2024-03-12T02:29:46.296Z,1.40
2024-03-12T02:30:46.360Z,1.50
2024-03-12T02:31:46.229Z,1.40
2024-03-12T02:32:46.225Z,1.60
2024-03-12T02:33:46.241Z,1.50
2024-03-12T02:34:46.184Z,1.80
2024-03-12T02:35:46.169Z,4.00
2024-03-12T02:36:46.195Z,1.90
2024-03-12T02:37:46.418Z,1.20
2024-03-12T02:38:46.137Z,3.70
2024-03-12T02:39:46.149Z,2.70
2024-03-12T02:40:46.094Z,1.10
2024-03-12T02:41:46.076Z,4.30
2024-03-12T02:42:46.273Z,2.90
2024-03-12T02:43:46.053Z,1.40
2024-03-12T02:44:46.047Z,1.80
2024-03-12T02:45:46.083Z,1.90
2024-03-12T02:46:46.003Z,1.70
2024-03-12T02:47:47.368Z,2.80
2024-03-12T02:48:46.004Z,1.50
2024-03-12T02:49:45.951Z,2.10
2024-03-12T02:50:45.936Z,1.50
2024-03-12T02:51:45.945Z,1.60
2024-03-12T02:52:45.911Z,1.50
2024-03-12T02:53:45.892Z,2.10
2024-03-12T02:54:45.894Z,1.50
2024-03-12T02:55:45.861Z,1.50
2024-03-12T02:56:45.854Z,1.60
2024-03-12T02:57:45.886Z,1.70
2024-03-12T02:58:45.817Z,3.30
2024-03-12T02:59:45.801Z,1.60
2024-03-12T03:00:45.819Z,1.40
2024-03-12T03:01:46.094Z,2.30
2024-03-12T03:02:45.961Z,1.50
2024-03-12T03:03:45.761Z,1.60
2024-03-12T03:04:45.736Z,1.70
2024-03-12T03:05:45.728Z,1.90
2024-03-12T03:06:45.740Z,2.00
2024-03-12T03:07:45.693Z,1.60
2024-03-12T03:08:45.673Z,3.20
2024-03-12T03:09:45.799Z,1.80
2024-03-12T03:10:45.683Z,1.90
2024-03-12T03:11:45.620Z,1.90
2024-03-12T03:12:45.620Z,1.70
2024-03-12T03:13:45.586Z,1.50
2024-03-12T03:14:45.579Z,1.70
2024-03-12T03:15:45.609Z,1.70
2024-03-12T03:16:45.545Z,1.70
2024-03-12T03:17:45.604Z,2.20
2024-03-12T03:18:45.580Z,2.10
2024-03-12T03:19:45.501Z,1.70
2024-03-12T03:20:45.491Z,1.70
2024-03-12T03:21:45.500Z,1.60
2024-03-12T03:22:45.453Z,2.10
2024-03-12T03:23:45.436Z,1.80
2024-03-12T03:24:45.466Z,3.10
2024-03-12T03:25:45.407Z,1.90
2024-03-12T03:26:45.389Z,1.70
2024-03-12T03:27:45.399Z,1.20
2024-03-12T03:28:45.370Z,2.10
2024-03-12T03:29:45.345Z,1.60
2024-03-12T03:30:45.370Z,2.10
2024-03-12T03:31:45.318Z,1.80
2024-03-12T03:32:45.333Z,2.00
2024-03-12T03:33:45.372Z,1.90
2024-03-12T03:34:45.270Z,2.90
2024-03-12T03:35:45.268Z,2.90
2024-03-12T03:36:45.278Z,1.90
2024-03-12T03:37:45.225Z,1.40
2024-03-12T03:38:45.212Z,2.00
2024-03-12T03:39:45.257Z,1.70
2024-03-12T03:40:45.384Z,1.40
2024-03-12T03:41:45.177Z,1.60
2024-03-12T03:42:45.169Z,1.40
2024-03-12T03:43:45.142Z,1.90
2024-03-12T03:44:45.123Z,3.10
2024-03-12T03:45:45.111Z,1.70
2024-03-12T03:46:45.089Z,1.80
2024-03-12T03:47:45.142Z,1.90
2024-03-12T03:48:45.084Z,2.30
2024-03-12T03:49:45.096Z,2.70
2024-03-12T03:50:45.030Z,1.80
2024-03-12T03:51:45.109Z,2.00
2024-03-12T03:52:45.011Z,1.60
2024-03-12T03:53:44.993Z,3.10
2024-03-12T03:54:44.997Z,2.10
2024-03-12T03:55:44.979Z,3.10
2024-03-12T03:56:44.939Z,1.60
2024-03-12T03:57:45.018Z,1.70
2024-03-12T03:58:44.923Z,6.60
2024-03-12T03:59:44.902Z,3.40
2024-03-12T04:00:44.925Z,2.00
2024-03-12T04:01:44.980Z,1.20
2024-03-12T04:02:45.024Z,2.00
2024-03-12T04:03:44.848Z,2.50
2024-03-12T04:04:44.851Z,1.70
2024-03-12T04:05:44.847Z,2.40
2024-03-12T04:06:44.886Z,1.90
2024-03-12T04:07:44.772Z,2.60
2024-03-12T04:08:44.756Z,1.90
2024-03-12T04:09:44.769Z,1.80
2024-03-12T04:10:44.776Z,2.30
2024-03-12T04:11:44.715Z,2.60
2024-03-12T04:12:44.715Z,2.50
2024-03-12T04:13:44.689Z,3.60
2024-03-12T04:14:44.691Z,1.90
2024-03-12T04:15:44.669Z,1.90
2024-03-12T04:16:44.640Z,1.90
2024-03-12T04:17:44.827Z,2.00
2024-03-12T04:18:44.635Z,5.00
2024-03-12T04:19:44.600Z,2.20
2024-03-12T04:20:44.582Z,2.50
2024-03-12T04:21:44.672Z,2.20
2024-03-12T04:22:44.706Z,2.70
2024-03-12T04:23:44.532Z,2.40
2024-03-12T04:24:44.552Z,2.00
2024-03-12T04:25:44.519Z,2.20
2024-03-12T04:26:44.486Z,1.50
2024-03-12T04:27:44.501Z,3.00
2024-03-12T04:28:44.475Z,2.80
2024-03-12T04:29:44.441Z,1.90
2024-03-12T04:30:44.436Z,2.00
2024-03-12T04:31:44.413Z,2.00
2024-03-12T04:32:44.429Z,2.00
2024-03-12T04:33:44.402Z,2.00
2024-03-12T04:34:44.463Z,2.90
2024-03-12T04:35:44.355Z,1.80
2024-03-12T04:36:44.376Z,1.80
2024-03-12T04:37:44.365Z,2.00
2024-03-12T04:38:44.300Z,2.40
2024-03-12T04:39:44.327Z,2.00
2024-03-12T04:40:44.281Z,1.70
2024-03-12T04:41:44.258Z,1.90
2024-03-12T04:42:44.258Z,2.30
2024-03-12T04:43:44.229Z,2.20
2024-03-12T04:44:44.216Z,2.10
2024-03-12T04:45:44.237Z,2.30
2024-03-12T04:46:44.182Z,2.00
2024-03-12T04:47:44.265Z,2.50
2024-03-12T04:48:44.356Z,3.20
2024-03-12T04:49:44.140Z,2.20
2024-03-12T04:50:44.119Z,1.80
2024-03-12T04:51:44.131Z,2.20
2024-03-12T04:52:44.155Z,1.90
2024-03-12T04:53:44.123Z,2.30
2024-03-12T04:54:44.153Z,4.00
2024-03-12T04:55:44.046Z,2.00
2024-03-12T04:56:44.031Z,2.70
2024-03-12T04:57:44.084Z,5.80
2024-03-12T04:58:44.001Z,3.20
2024-03-12T04:59:43.990Z,2.20
2024-03-12T05:00:44.113Z,1.60
2024-03-12T05:01:44.075Z,2.00
2024-03-12T05:02:44.205Z,1.90
2024-03-12T05:03:44.025Z,2.30
2024-03-12T05:04:43.947Z,3.30
2024-03-12T05:05:43.899Z,2.30
2024-03-12T05:06:44.019Z,2.20
2024-03-12T05:07:43.921Z,4.70
2024-03-12T05:08:43.958Z,2.60
2024-03-12T05:09:44.016Z,2.60
2024-03-12T05:10:43.948Z,1.90
2024-03-12T05:11:43.918Z,1.80
2024-03-12T05:12:43.806Z,3.20
2024-03-12T05:13:43.781Z,2.50
2024-03-12T05:14:43.768Z,2.00
2024-03-12T05:15:43.772Z,2.50
2024-03-12T05:16:43.735Z,2.50
2024-03-12T05:17:43.780Z,2.80
2024-03-12T05:18:43.733Z,1.90
2024-03-12T05:19:43.690Z,2.10
2024-03-12T05:20:43.671Z,1.80
2024-03-12T05:21:43.692Z,2.70
2024-03-12T05:22:43.656Z,3.30
2024-03-12T05:23:43.731Z,3.10
2024-03-12T05:24:43.709Z,2.50
2024-03-12T05:25:43.647Z,2.10
2024-03-12T05:26:43.581Z,1.50
2024-03-12T05:27:43.602Z,2.30
2024-03-12T05:28:43.549Z,2.80
2024-03-12T05:29:43.655Z,5.90
2024-03-12T05:30:43.882Z,2.10
2024-03-12T05:31:43.511Z,2.10
2024-03-12T05:32:43.507Z,2.70
2024-03-12T05:33:43.514Z,5.70
2024-03-12T05:34:43.458Z,2.70
2024-03-12T05:35:43.444Z,4.20
2024-03-12T05:36:43.460Z,2.80
2024-03-12T05:37:43.412Z,3.20
2024-03-12T05:38:43.400Z,2.40
2024-03-12T05:39:43.404Z,2.80
2024-03-12T05:40:43.365Z,2.80
2024-03-12T05:41:43.408Z,2.60
2024-03-12T05:42:43.355Z,3.50
2024-03-12T05:43:43.322Z,3.00
2024-03-12T05:44:43.305Z,2.70
2024-03-12T05:45:43.416Z,2.50
2024-03-12T05:46:43.408Z,3.20
2024-03-12T05:47:43.268Z,2.30
2024-03-12T05:48:43.283Z,2.60
2024-03-12T05:49:43.239Z,2.40
2024-03-12T05:50:43.211Z,2.70
2024-03-12T05:51:43.326Z,3.90
2024-03-12T05:52:43.183Z,2.10
2024-03-12T05:53:43.173Z,5.20
2024-03-12T05:54:43.187Z,2.70
2024-03-12T05:55:43.137Z,2.50
2024-03-12T05:56:43.123Z,3.00
2024-03-12T05:57:43.163Z,2.80
2024-03-12T05:58:43.107Z,3.80
2024-03-12T05:59:43.089Z,2.80
2024-03-12T06:00:43.180Z,5.40
2024-03-12T06:01:43.233Z,4.40
2024-03-12T06:02:43.235Z,2.90
2024-03-12T06:03:43.064Z,3.40
2024-03-12T06:04:43.052Z,2.80
2024-03-12T06:05:42.992Z,3.30
2024-03-12T06:06:42.990Z,2.80
2024-03-12T06:07:42.956Z,2.90
2024-03-12T06:08:42.953Z,1.80
2024-03-12T06:09:42.968Z,3.20
2024-03-12T06:10:42.908Z,4.50
2024-03-12T06:11:42.957Z,3.90
2024-03-12T06:12:42.906Z,3.20
2024-03-12T06:13:42.909Z,2.60
2024-03-12T06:14:42.848Z,2.70
2024-03-12T06:15:42.934Z,2.80
2024-03-12T06:16:42.818Z,3.10
2024-03-12T06:17:42.823Z,2.30
2024-03-12T06:18:42.833Z,3.90
2024-03-12T06:19:42.773Z,3.90
2024-03-12T06:20:42.780Z,2.30
2024-03-12T06:21:42.856Z,2.60
2024-03-12T06:22:42.728Z,3.30
2024-03-12T06:23:42.716Z,3.60
2024-03-12T06:24:42.732Z,3.70
2024-03-12T06:25:42.682Z,3.20
2024-03-12T06:26:42.663Z,4.20
2024-03-12T06:27:42.883Z,3.70
2024-03-12T06:28:42.641Z,3.70
2024-03-12T06:29:42.660Z,3.70
2024-03-12T06:30:42.635Z,2.50
2024-03-12T06:31:42.589Z,2.60
2024-03-12T06:32:42.656Z,3.10
2024-03-12T06:33:42.570Z,4.80
2024-03-12T06:34:45.494Z,3.30
2024-03-12T06:35:42.707Z,2.60
2024-03-12T06:36:42.575Z,3.30
2024-03-12T06:37:42.498Z,2.60
2024-03-12T06:38:42.490Z,3.00
2024-03-12T06:39:42.466Z,3.20
2024-03-12T06:40:42.502Z,2.90
2024-03-12T06:41:42.463Z,4.50
2024-03-12T06:42:42.444Z,3.60
2024-03-12T06:43:42.585Z,3.70
2024-03-12T06:44:42.392Z,3.30
2024-03-12T06:45:42.621Z,4.80
2024-03-12T06:46:42.361Z,3.40
2024-03-12T06:47:42.377Z,3.60
2024-03-12T06:48:42.361Z,4.10
2024-03-12T06:49:42.323Z,2.90
2024-03-12T06:50:42.352Z,4.10
2024-03-12T06:51:42.326Z,3.80
2024-03-12T06:52:42.269Z,4.10
2024-03-12T06:53:42.254Z,2.80
2024-03-12T06:54:42.296Z,3.70
2024-03-12T06:55:42.229Z,3.00
2024-03-12T06:56:42.210Z,3.50
2024-03-12T06:57:42.216Z,3.60
2024-03-12T06:58:42.179Z,2.40
2024-03-12T06:59:42.163Z,3.20
2024-03-12T07:00:42.172Z,3.90
2024-03-12T07:01:42.396Z,5.10
2024-03-12T07:02:42.118Z,3.40
2024-03-12T07:03:42.147Z,2.80
2024-03-12T07:04:42.087Z,4.60
2024-03-12T07:05:42.090Z,3.50
2024-03-12T07:06:42.084Z,4.20
2024-03-12T07:07:42.044Z,2.70
2024-03-12T07:08:42.029Z,4.40
2024-03-12T07:09:42.196Z,4.20
2024-03-12T07:10:42.242Z,3.00
2024-03-12T07:11:41.985Z,3.30
2024-03-12T07:12:41.970Z,3.10
2024-03-12T07:13:41.957Z,4.20
2024-03-12T07:14:41.957Z,5.50
2024-03-12T07:15:41.967Z,3.50
2024-03-12T07:16:41.923Z,3.40
2024-03-12T07:17:41.965Z,3.40
2024-03-12T07:18:41.927Z,3.50
2024-03-12T07:19:41.874Z,3.50
2024-03-12T07:20:41.846Z,4.60
2024-03-12T07:21:41.900Z,3.20
2024-03-12T07:22:44.775Z,3.40
2024-03-12T07:23:41.804Z,3.10
2024-03-12T07:24:41.797Z,2.70
2024-03-12T07:25:41.772Z,2.80
2024-03-12T07:26:41.757Z,3.20
2024-03-12T07:27:41.789Z,2.50
2024-03-12T07:28:41.724Z,3.20
2024-03-12T07:29:41.707Z,3.70
2024-03-12T07:30:41.745Z,3.70
2024-03-12T07:31:41.681Z,2.90
2024-03-12T07:32:41.724Z,2.20
2024-03-12T07:33:41.737Z,3.40
2024-03-12T07:34:41.639Z,3.30
2024-03-12T07:35:41.621Z,3.20
2024-03-12T07:36:41.624Z,3.40
2024-03-12T07:37:41.592Z,3.00
2024-03-12T07:38:41.608Z,3.80
2024-03-12T07:39:41.575Z,4.50
2024-03-12T07:40:41.541Z,2.60
2024-03-12T07:41:41.526Z,2.90
2024-03-12T07:42:41.541Z,2.40
2024-03-12T07:43:41.497Z,2.50
2024-03-12T07:44:41.483Z,2.80
2024-03-12T07:45:41.507Z,4.50
2024-03-12T07:46:41.450Z,2.30
2024-03-12T07:47:41.469Z,3.00
2024-03-12T07:48:41.446Z,2.50
2024-03-12T07:49:41.503Z,2.70
2024-03-12T07:50:41.388Z,2.50
2024-03-12T07:51:41.412Z,2.70
2024-03-12T07:52:41.358Z,2.50
2024-03-12T07:53:41.341Z,2.60
2024-03-12T07:54:41.386Z,2.80
2024-03-12T07:55:41.313Z,4.30
2024-03-12T07:56:41.296Z,3.90
2024-03-12T07:57:41.337Z,2.60
2024-03-12T07:58:41.266Z,4.00
2024-03-12T07:59:41.326Z,3.50
2024-03-12T08:00:41.328Z,3.00
2024-03-12T08:01:41.250Z,2.40
2024-03-12T08:02:41.219Z,2.20
2024-03-12T08:03:41.221Z,6.00
2024-03-12T08:04:41.176Z,2.70
2024-03-12T08:05:41.213Z,3.20
2024-03-12T08:06:41.178Z,3.50
2024-03-12T08:07:41.140Z,3.80
2024-03-12T08:08:41.114Z,3.70
2024-03-12T08:09:41.141Z,3.80
2024-03-12T08:10:41.089Z,3.80
2024-03-12T08:11:41.139Z,2.40
2024-03-12T08:12:41.594Z,2.70
2024-03-12T08:13:41.047Z,3.40
2024-03-12T08:14:41.026Z,3.40
2024-03-12T08:15:41.057Z,3.80
2024-03-12T08:16:40.993Z,2.70
2024-03-12T08:17:41.006Z,2.70
2024-03-12T08:18:41.091Z,1.90
2024-03-12T08:19:41.048Z,2.60
2024-03-12T08:20:40.933Z,3.60
2024-03-12T08:21:41.008Z,3.80
2024-03-12T08:22:40.901Z,3.80
2024-03-12T08:23:40.884Z,4.20
2024-03-12T08:24:41.096Z,2.90
2024-03-12T08:25:50.726Z,3.00
2024-03-12T08:26:40.857Z,8.00
2024-03-12T08:27:41.124Z,3.10
2024-03-12T08:28:40.812Z,2.90
2024-03-12T08:29:40.796Z,2.50
2024-03-12T08:30:40.821Z,3.10
2024-03-12T08:31:44.976Z,3.80
2024-03-12T08:32:40.817Z,3.60
2024-03-12T08:33:40.783Z,2.90
2024-03-12T08:34:40.721Z,3.10
2024-03-12T08:35:40.706Z,3.30
2024-03-12T08:36:40.726Z,3.60
2024-03-12T08:37:40.723Z,3.90
2024-03-12T08:38:40.662Z,4.60
2024-03-12T08:39:40.945Z,4.20
2024-03-12T08:40:40.631Z,4.70
2024-03-12T08:41:40.619Z,4.30
2024-03-12T08:42:47.565Z,4.50
2024-03-12T08:43:40.669Z,7.00
2024-03-12T08:44:40.569Z,4.30
2024-03-12T08:45:40.581Z,3.30
2024-03-12T08:46:40.541Z,3.00
2024-03-12T08:47:40.580Z,4.00
2024-03-12T08:48:40.570Z,5.10
2024-03-12T08:49:40.513Z,8.20
2024-03-12T08:50:40.481Z,5.40
2024-03-12T08:51:40.756Z,3.40
2024-03-12T08:52:40.460Z,3.80
2024-03-12T08:53:40.486Z,5.50
2024-03-12T08:54:40.546Z,5.30
2024-03-12T08:55:40.410Z,5.40
2024-03-12T08:56:40.390Z,4.50
2024-03-12T08:57:40.439Z,4.70
2024-03-12T08:58:40.360Z,5.20
2024-03-12T08:59:40.414Z,4.00
2024-03-12T09:00:40.376Z,5.20
2024-03-12T09:01:40.653Z,5.00
2024-03-12T09:02:40.490Z,3.70
2024-03-12T09:03:42.038Z,7.10
2024-03-12T09:04:40.317Z,3.80
2024-03-12T09:05:40.259Z,5.40
2024-03-12T09:06:40.318Z,5.20
2024-03-12T09:07:40.269Z,5.30
2024-03-12T09:08:40.266Z,4.60
2024-03-12T09:09:40.269Z,6.00
2024-03-12T09:10:40.256Z,5.50
2024-03-12T09:11:40.523Z,6.20
2024-03-12T09:12:40.185Z,7.50
2024-03-12T09:13:40.150Z,6.20
2024-03-12T09:14:40.158Z,4.40
2024-03-12T09:15:40.156Z,5.60
2024-03-12T09:16:40.102Z,3.90
2024-03-12T09:17:40.191Z,7.80
2024-03-12T09:18:40.098Z,7.90
2024-03-12T09:19:40.056Z,5.70
2024-03-12T09:20:40.048Z,7.50
2024-03-12T09:21:40.043Z,6.40
2024-03-12T09:22:40.007Z,6.20
2024-03-12T09:23:47.812Z,6.20
2024-03-12T09:24:40.039Z,5.30
2024-03-12T09:25:40.037Z,9.00
2024-03-12T09:26:39.956Z,6.40
2024-03-12T09:27:39.948Z,4.60
2024-03-12T09:28:39.925Z,4.90
2024-03-12T09:29:39.904Z,5.50
2024-03-12T09:30:39.941Z,3.60
2024-03-12T09:31:39.873Z,6.50
2024-03-12T09:32:39.885Z,7.00
2024-03-12T09:33:39.857Z,5.50
2024-03-12T09:34:39.836Z,6.40
2024-03-12T09:35:39.823Z,3.50
2024-03-12T09:36:39.876Z,4.40
2024-03-12T09:37:39.787Z,3.90
2024-03-12T09:38:39.781Z,5.10
2024-03-12T09:39:39.801Z,4.70
2024-03-12T09:40:39.750Z,5.20
2024-03-12T09:41:39.769Z,5.90
2024-03-12T09:42:39.794Z,5.80
2024-03-12T09:43:39.698Z,4.40
2024-03-12T09:44:39.690Z,3.80
2024-03-12T09:45:39.729Z,5.40
2024-03-12T09:46:39.670Z,4.50
2024-03-12T09:47:39.673Z,4.00
2024-03-12T09:48:39.636Z,3.30
2024-03-12T09:49:39.621Z,5.20
2024-03-12T09:50:39.619Z,3.20
2024-03-12T09:51:39.601Z,3.30
2024-03-12T09:52:39.584Z,5.80
2024-03-12T09:53:39.565Z,4.20
2024-03-12T09:54:39.570Z,3.90
2024-03-12T09:55:39.530Z,4.70
2024-03-12T09:56:39.514Z,5.80
2024-03-12T09:57:39.570Z,3.40
2024-03-12T09:58:39.767Z,4.50
2024-03-12T09:59:39.468Z,6.60
2024-03-12T10:00:39.476Z,3.90
2024-03-12T10:01:39.906Z,4.80
2024-03-12T10:02:39.430Z,3.60
2024-03-12T10:03:39.438Z,6.30
2024-03-12T10:04:39.402Z,3.70
2024-03-12T10:05:39.390Z,4.00
2024-03-12T10:06:39.390Z,6.10
2024-03-12T10:07:39.354Z,5.90
2024-03-12T10:08:39.343Z,3.40
2024-03-12T10:09:39.361Z,4.70
2024-03-12T10:10:39.462Z,5.10
2024-03-12T10:11:39.328Z,5.00
2024-03-12T10:12:39.307Z,3.90
2024-03-12T10:13:39.305Z,4.50
2024-03-12T10:14:39.266Z,5.10
2024-03-12T10:15:39.270Z,4.70
2024-03-12T10:16:39.235Z,5.30
2024-03-12T10:17:39.221Z,4.10
2024-03-12T10:18:39.308Z,4.10
2024-03-12T10:19:39.188Z,4.50
2024-03-12T10:20:39.172Z,5.20
2024-03-12T10:21:39.272Z,3.40
2024-03-12T10:22:39.148Z,4.50
2024-03-12T10:23:39.199Z,8.00
2024-03-12T10:24:39.144Z,5.00
2024-03-12T10:25:39.096Z,4.60
2024-03-12T10:26:39.091Z,6.20
2024-03-12T10:27:39.098Z,4.20
2024-03-12T10:28:39.128Z,4.30
2024-03-12T10:29:39.087Z,7.60
2024-03-12T10:30:39.072Z,7.00
2024-03-12T10:31:39.020Z,5.30
2024-03-12T10:32:39.037Z,4.80
2024-03-12T10:33:39.064Z,3.60
2024-03-12T10:34:38.971Z,4.50
2024-03-12T10:35:38.954Z,3.10
2024-03-12T10:36:39.172Z,3.00
2024-03-12T10:37:38.930Z,3.10
2024-03-12T10:38:38.918Z,2.60
2024-03-12T10:39:39.030Z,5.30
2024-03-12T10:40:38.904Z,3.50
2024-03-12T10:41:38.877Z,3.10
2024-03-12T10:42:39.003Z,2.60
2024-03-12T10:43:38.927Z,4.10
2024-03-12T10:44:38.838Z,2.70
2024-03-12T10:45:38.903Z,2.80
2024-03-12T10:46:38.809Z,2.40
2024-03-12T10:47:38.816Z,2.90
2024-03-12T10:48:38.816Z,2.40
2024-03-12T10:49:38.817Z,2.30
2024-03-12T10:50:38.753Z,2.30
2024-03-12T10:51:38.753Z,4.60
2024-03-12T10:52:38.729Z,2.70
2024-03-12T10:53:38.716Z,2.00
2024-03-12T10:54:38.791Z,2.80
2024-03-12T10:55:38.712Z,3.80
2024-03-12T10:56:38.680Z,2.60
2024-03-12T10:57:38.696Z,4.90
2024-03-12T10:58:38.649Z,2.90
2024-03-12T10:59:38.634Z,3.00
2024-03-12T11:00:38.656Z,2.70
2024-03-12T11:01:38.679Z,2.40
2024-03-12T11:02:38.599Z,2.90
2024-03-12T11:03:38.604Z,2.70
2024-03-12T11:04:38.600Z,3.40
2024-03-12T11:05:38.553Z,2.90
2024-03-12T11:06:38.559Z,3.60
2024-03-12T11:07:38.544Z,2.80
2024-03-12T11:08:38.525Z,2.30
2024-03-12T11:09:38.573Z,3.60
2024-03-12T11:10:38.543Z,2.60
2024-03-12T11:11:38.508Z,1.90
2024-03-12T11:12:38.482Z,3.00
2024-03-12T11:13:38.469Z,3.30
2024-03-12T11:14:38.437Z,2.80
2024-03-12T11:15:38.463Z,2.40
2024-03-12T11:16:38.460Z,3.30
2024-03-12T11:17:38.456Z,2.90
2024-03-12T11:18:38.411Z,2.80
2024-03-12T11:19:38.373Z,2.10
2024-03-12T11:20:38.358Z,1.70
2024-03-12T11:21:38.364Z,3.60
2024-03-12T11:22:38.330Z,3.70
2024-03-12T11:23:38.323Z,2.10
2024-03-12T11:24:38.319Z,2.20
2024-03-12T11:25:38.285Z,3.90
2024-03-12T11:26:38.276Z,3.80
2024-03-12T11:27:38.282Z,2.10
2024-03-12T11:28:38.248Z,2.50
2024-03-12T11:29:38.236Z,3.60
2024-03-12T11:30:38.243Z,3.70
2024-03-12T11:31:38.222Z,4.00
2024-03-12T11:32:38.221Z,2.90
2024-03-12T11:33:38.242Z,2.10
2024-03-12T11:34:38.169Z,1.80
2024-03-12T11:35:38.158Z,2.30
2024-03-12T11:36:38.149Z,2.50
2024-03-12T11:37:38.130Z,2.50
2024-03-12T11:38:38.128Z,2.90
2024-03-12T11:39:38.124Z,2.80
2024-03-12T11:40:38.591Z,2.90
2024-03-12T11:41:38.073Z,2.10
2024-03-12T11:42:38.095Z,3.40
2024-03-12T11:43:38.048Z,3.00
2024-03-12T11:44:38.035Z,3.70
2024-03-12T11:45:38.056Z,4.10
2024-03-12T11:46:38.008Z,2.90
2024-03-12T11:47:38.356Z,2.10
2024-03-12T11:48:38.007Z,2.20
2024-03-12T11:49:38.010Z,3.20
2024-03-12T11:50:37.962Z,3.60
2024-03-12T11:51:37.963Z,2.20
2024-03-12T11:52:37.933Z,4.00
2024-03-12T11:53:37.958Z,3.80
2024-03-12T11:54:37.931Z,2.70
2024-03-12T11:55:37.891Z,2.10
2024-03-12T11:56:37.879Z,2.40
2024-03-12T11:57:37.895Z,4.20
2024-03-12T11:58:37.850Z,1.80
2024-03-12T11:59:37.853Z,2.20
2024-03-12T12:00:37.900Z,2.30
2024-03-12T12:01:37.896Z,2.80
2024-03-12T12:02:37.802Z,3.00
2024-03-12T12:03:37.828Z,3.90
2024-03-12T12:04:37.806Z,3.60
2024-03-12T12:05:37.808Z,3.20
2024-03-12T12:06:37.849Z,3.30
2024-03-12T12:07:37.922Z,4.10
2024-03-12T12:08:45.816Z,3.90
2024-03-12T12:09:37.933Z,4.00
2024-03-12T12:10:37.688Z,3.70
2024-03-12T12:11:37.841Z,4.00
2024-03-12T12:12:37.698Z,3.70
2024-03-12T12:13:37.646Z,4.20
2024-03-12T12:14:37.634Z,3.40
2024-03-12T12:15:37.709Z,4.30
2024-03-12T12:16:37.610Z,3.60
2024-03-12T12:17:37.619Z,4.60
2024-03-12T12:18:37.614Z,2.70
2024-03-12T12:19:42.444Z,4.50
2024-03-12T12:20:37.560Z,3.70
2024-03-12T12:21:37.943Z,3.90
2024-03-12T12:22:37.597Z,3.30
2024-03-12T12:23:37.518Z,3.60
2024-03-12T12:24:37.564Z,5.40
2024-03-12T12:25:37.484Z,3.90
2024-03-12T12:26:37.746Z,3.00
2024-03-12T12:27:37.468Z,4.10
2024-03-12T12:28:37.451Z,3.40
2024-03-12T12:29:37.433Z,3.90
2024-03-12T12:30:37.472Z,3.60
2024-03-12T12:31:38.205Z,4.00
2024-03-12T12:32:37.411Z,2.70
2024-03-12T12:33:37.402Z,3.10
2024-03-12T12:34:37.360Z,2.90
2024-03-12T12:35:37.577Z,5.70
2024-03-12T12:36:37.524Z,3.00
2024-03-12T12:37:37.363Z,3.60
2024-03-12T12:38:37.306Z,3.00
2024-03-12T12:39:44.141Z,3.30
2024-03-12T12:40:37.348Z,5.00
2024-03-12T12:41:37.278Z,3.70
2024-03-12T12:42:37.280Z,2.70
2024-03-12T12:43:37.577Z,2.70
2024-03-12T12:44:37.224Z,3.60
2024-03-12T12:45:37.451Z,3.10
2024-03-12T12:46:37.211Z,2.70
2024-03-12T12:47:37.223Z,4.70
2024-03-12T12:48:37.413Z,4.50
2024-03-12T12:49:37.159Z,2.80
2024-03-12T12:50:37.142Z,2.40
2024-03-12T12:51:37.179Z,4.10
2024-03-12T12:52:37.113Z,2.80
2024-03-12T12:53:37.147Z,4.60
2024-03-12T12:54:37.218Z,2.60
2024-03-12T12:55:37.076Z,4.50
2024-03-12T12:56:37.059Z,3.60
2024-03-12T12:57:37.118Z,2.90
2024-03-12T12:58:37.029Z,3.80
2024-03-12T12:59:37.021Z,2.90
2024-03-12T13:00:37.673Z,4.90
2024-03-12T13:01:37.080Z,4.60
2024-03-12T13:02:36.978Z,3.10
2024-03-12T13:03:36.989Z,4.60
2024-03-12T13:04:36.955Z,5.80
2024-03-12T13:05:36.938Z,3.50
2024-03-12T13:06:36.941Z,5.60
2024-03-12T13:07:36.911Z,3.40
2024-03-12T13:08:36.896Z,2.80
2024-03-12T13:09:37.177Z,5.70
2024-03-12T13:10:36.894Z,5.60
2024-03-12T13:11:36.943Z,3.20
2024-03-12T13:12:36.879Z,4.70
2024-03-12T13:13:36.858Z,4.70
2024-03-12T13:14:36.813Z,4.20
2024-03-12T13:15:36.812Z,3.30
2024-03-12T13:16:36.795Z,3.40
2024-03-12T13:17:37.115Z,3.80
2024-03-12T13:18:36.838Z,2.80